Ione, Washington
Current Conditions -  °F | °C
As of 6:00 AM on Friday 24 Oct 2014 (Local Time) from CYCG Reporting Station
Broken Clouds Broken Clouds  
Wind Chill: 41°   Ceiling: 16000
Heat Index: 41°   Visibility: 15mi
Dew Point: 39°   Wind: 3mph
Humidity: 93%   Direction: 140°SE
Pressure: 30.05"   Gusts: NA
Location:  48.74°N, 117.42°W
Report Text: CYCG 241300Z 14003KT 15SM FEW040 BKN160 05/04 A3005 RMK SC2AC4 SLP186
Loading
Personal Weather Stations






























Interactive Weather Map
Tropical Storm Tracking
New forecast layout! Learn more

10-Day Weather Forecast

Advertisements
Track Severe Weather on mobile